Terminal Aerodrome Forecast
Issued by NWS

Home | Current Version | Previous Version | Text Only | Print | Product List | Glossary On
Versions: 1 2 3 4 5 6 7 8 9 10 11 12 13 14 15 16 17 18 19 20 21 22 23 24 25 26 27
000
FTUS44 KLZK 070500
TAFLIT
TAF
KLIT 070539Z 0706/0806 16005KT P6SM SCT100 OVC250
     FM071000 17006KT P6SM VCSH SCT020 OVC250
      TEMPO 0710/0713 BKN020
     FM071500 22008G15KT P6SM VCSH SCT030 OVC060
     FM071700 23009G18KT P6SM VCTS SCT030CB OVC080 PROB30 0718/0722
      5SM -TSRA BKN035CB=

USA.gov is the U.S. government's official web portal to all federal, state and local government web resources and services.